sensor_id;sensor_type;location;lat;lon;timestamp;pressure;altitude;pressure_sealevel;temperature;humidity
5966;BME280;3009;43.224;27.976;2023-09-19T00:00:21;100828.34;;;17.63;100.00
5966;BME280;3009;43.224;27.976;2023-09-19T00:02:52;100818.63;;;17.62;100.00
5966;BME280;3009;43.224;27.976;2023-09-19T00:05:21;100826.63;;;17.70;100.00
5966;BME280;3009;43.224;27.976;2023-09-19T00:07:51;100821.59;;;17.57;100.00
5966;BME280;3009;43.224;27.976;2023-09-19T00:10:22;100820.00;;;17.56;100.00
5966;BME280;3009;43.224;27.976;2023-09-19T00:12:51;100832.34;;;17.53;100.00
5966;BME280;3009;43.224;27.976;2023-09-19T00:15:22;100826.03;;;17.49;100.00
5966;BME280;3009;43.224;27.976;2023-09-19T00:17:51;100820.03;;;17.43;100.00
5966;BME280;3009;43.224;27.976;2023-09-19T00:20:20;100815.94;;;17.49;100.00
5966;BME280;3009;43.224;27.976;2023-09-19T00:22:50;100810.75;;;17.57;100.00
5966;BME280;3009;43.224;27.976;2023-09-19T00:25:19;100804.75;;;17.51;100.00
5966;BME280;3009;43.224;27.976;2023-09-19T00:27:49;100810.19;;;17.51;100.00
5966;BME280;3009;43.224;27.976;2023-09-19T00:30:18;100802.19;;;17.54;100.00
5966;BME280;3009;43.224;27.976;2023-09-19T00:32:50;100804.72;;;17.63;100.00
5966;BME280;3009;43.224;27.976;2023-09-19T00:35:19;100812.06;;;17.63;100.00
5966;BME280;3009;43.224;27.976;2023-09-19T00:37:48;100802.81;;;17.64;100.00
5966;BME280;3009;43.224;27.976;2023-09-19T00:40:16;100804.63;;;17.60;100.00
5966;BME280;3009;43.224;27.976;2023-09-19T00:42:46;100799.34;;;17.51;100.00
5966;BME280;3009;43.224;27.976;2023-09-19T00:45:16;100804.88;;;17.54;100.00
5966;BME280;3009;43.224;27.976;2023-09-19T00:47:48;100797.19;;;17.57;100.00
5966;BME280;3009;43.224;27.976;2023-09-19T00:50:18;100799.13;;;17.56;100.00
5966;BME280;3009;43.224;27.976;2023-09-19T00:52:48;100796.63;;;17.51;100.00
5966;BME280;3009;43.224;27.976;2023-09-19T00:55:18;100798.00;;;17.45;100.00
5966;BME280;3009;43.224;27.976;2023-09-19T00:57:48;100804.34;;;17.49;100.00
5966;BME280;3009;43.224;27.976;2023-09-19T01:00:18;100810.88;;;17.48;100.00
5966;BME280;3009;43.224;27.976;2023-09-19T01:02:48;100804.19;;;17.58;100.00
5966;BME280;3009;43.224;27.976;2023-09-19T01:05:17;100801.47;;;17.58;100.00
5966;BME280;3009;43.224;27.976;2023-09-19T01:07:45;100799.00;;;17.52;100.00
5966;BME280;3009;43.224;27.976;2023-09-19T01:10:17;100795.16;;;17.53;100.00
5966;BME280;3009;43.224;27.976;2023-09-19T01:12:55;100798.56;;;17.50;100.00
5966;BME280;3009;43.224;27.976;2023-09-19T01:15:44;100799.91;;;17.57;100.00
5966;BME280;3009;43.224;27.976;2023-09-19T01:18:30;100801.00;;;17.68;100.00
5966;BME280;3009;43.224;27.976;2023-09-19T01:21:06;100795.44;;;17.64;100.00
5966;BME280;3009;43.224;27.976;2023-09-19T01:23:50;100798.50;;;17.63;100.00
5966;BME280;3009;43.224;27.976;2023-09-19T01:26:44;100792.84;;;17.68;100.00
5966;BME280;3009;43.224;27.976;2023-09-19T01:29:30;100792.50;;;17.69;100.00
5966;BME280;3009;43.224;27.976;2023-09-19T01:32:04;100781.13;;;17.64;100.00
5966;BME280;3009;43.224;27.976;2023-09-19T01:34:46;100788.63;;;17.54;100.00
5966;BME280;3009;43.224;27.976;2023-09-19T01:37:16;100786.00;;;17.58;100.00
5966;BME280;3009;43.224;27.976;2023-09-19T01:39:48;100787.94;;;17.58;100.00
5966;BME280;3009;43.224;27.976;2023-09-19T01:42:24;100787.88;;;17.70;100.00
5966;BME280;3009;43.224;27.976;2023-09-19T01:45:03;100795.75;;;17.75;100.00
5966;BME280;3009;43.224;27.976;2023-09-19T01:47:47;100793.50;;;17.77;100.00
5966;BME280;3009;43.224;27.976;2023-09-19T01:50:21;100787.53;;;17.71;100.00
5966;BME280;3009;43.224;27.976;2023-09-19T01:52:57;100785.59;;;17.72;100.00
5966;BME280;3009;43.224;27.976;2023-09-19T01:55:28;100793.63;;;17.68;100.00
5966;BME280;3009;43.224;27.976;2023-09-19T01:58:08;100793.03;;;17.75;100.00
5966;BME280;3009;43.224;27.976;2023-09-19T02:00:43;100785.59;;;17.72;100.00
5966;BME280;3009;43.224;27.976;2023-09-19T02:03:15;100789.63;;;17.78;100.00
5966;BME280;3009;43.224;27.976;2023-09-19T02:05:48;100792.94;;;17.71;100.00
5966;BME280;3009;43.224;27.976;2023-09-19T02:08:20;100797.69;;;17.75;100.00
5966;BME280;3009;43.224;27.976;2023-09-19T02:10:50;100798.09;;;17.77;100.00
5966;BME280;3009;43.224;27.976;2023-09-19T02:13:20;100798.09;;;17.77;100.00
5966;BME280;3009;43.224;27.976;2023-09-19T02:15:51;100799.97;;;17.73;100.00
5966;BME280;3009;43.224;27.976;2023-09-19T02:18:21;100794.88;;;17.71;100.00
5966;BME280;3009;43.224;27.976;2023-09-19T02:20:49;100796.94;;;17.62;100.00
5966;BME280;3009;43.224;27.976;2023-09-19T02:23:20;100793.28;;;17.70;100.00
5966;BME280;3009;43.224;27.976;2023-09-19T02:25:52;100790.84;;;17.65;100.00
5966;BME280;3009;43.224;27.976;2023-09-19T02:28:21;100792.06;;;17.67;100.00
5966;BME280;3009;43.224;27.976;2023-09-19T02:30:50;100794.53;;;17.73;100.00
5966;BME280;3009;43.224;27.976;2023-09-19T02:33:18;100791.34;;;17.70;100.00
5966;BME280;3009;43.224;27.976;2023-09-19T02:35:48;100788.00;;;17.61;100.00
5966;BME280;3009;43.224;27.976;2023-09-19T02:38:17;100781.34;;;17.59;100.00
5966;BME280;3009;43.224;27.976;2023-09-19T02:40:51;100783.88;;;17.51;100.00
5966;BME280;3009;43.224;27.976;2023-09-19T02:43:22;100772.41;;;17.42;100.00
5966;BME280;3009;43.224;27.976;2023-09-19T02:45:51;100780.31;;;17.35;100.00
5966;BME280;3009;43.224;27.976;2023-09-19T02:48:21;100785.06;;;17.38;100.00
5966;BME280;3009;43.224;27.976;2023-09-19T02:50:51;100775.78;;;17.39;100.00
5966;BME280;3009;43.224;27.976;2023-09-19T02:53:20;100777.63;;;17.35;100.00
5966;BME280;3009;43.224;27.976;2023-09-19T02:55:49;100774.56;;;17.36;100.00
5966;BME280;3009;43.224;27.976;2023-09-19T02:58:19;100781.03;;;17.32;100.00
5966;BME280;3009;43.224;27.976;2023-09-19T03:00:47;100780.75;;;17.37;100.00
5966;BME280;3009;43.224;27.976;2023-09-19T03:03:17;100778.84;;;17.38;100.00
5966;BME280;3009;43.224;27.976;2023-09-19T03:05:46;100779.63;;;17.38;100.00
5966;BME280;3009;43.224;27.976;2023-09-19T03:08:19;100772.53;;;17.33;100.00
5966;BME280;3009;43.224;27.976;2023-09-19T03:10:48;100771.31;;;17.31;100.00
5966;BME280;3009;43.224;27.976;2023-09-19T03:13:17;100766.91;;;17.26;100.00
5966;BME280;3009;43.224;27.976;2023-09-19T03:15:47;100772.41;;;17.30;100.00
5966;BME280;3009;43.224;27.976;2023-09-19T03:18:17;100776.13;;;17.38;100.00
5966;BME280;3009;43.224;27.976;2023-09-19T03:20:52;100776.25;;;17.41;100.00
5966;BME280;3009;43.224;27.976;2023-09-19T03:23:23;100786.88;;;17.34;100.00
5966;BME280;3009;43.224;27.976;2023-09-19T03:25:53;100776.94;;;17.38;100.00
5966;BME280;3009;43.224;27.976;2023-09-19T03:28:21;100781.66;;;17.41;100.00
5966;BME280;3009;43.224;27.976;2023-09-19T03:31:00;100781.75;;;17.45;100.00
5966;BME280;3009;43.224;27.976;2023-09-19T03:33:29;100788.41;;;17.47;100.00
5966;BME280;3009;43.224;27.976;2023-09-19T03:36:00;100791.91;;;17.48;100.00
5966;BME280;3009;43.224;27.976;2023-09-19T03:38:34;100792.50;;;17.41;100.00
5966;BME280;3009;43.224;27.976;2023-09-19T03:41:03;100792.72;;;17.36;100.00
5966;BME280;3009;43.224;27.976;2023-09-19T03:43:32;100786.88;;;17.34;100.00
5966;BME280;3009;43.224;27.976;2023-09-19T03:46:01;100797.81;;;17.38;100.00
5966;BME280;3009;43.224;27.976;2023-09-19T03:48:32;100789.31;;;17.39;100.00
5966;BME280;3009;43.224;27.976;2023-09-19T03:51:01;100786.19;;;17.37;100.00
5966;BME280;3009;43.224;27.976;2023-09-19T03:53:29;100795.44;;;17.36;100.00
5966;BME280;3009;43.224;27.976;2023-09-19T03:55:59;100788.66;;;17.42;100.00
5966;BME280;3009;43.224;27.976;2023-09-19T03:58:28;100793.28;;;17.42;100.00
5966;BME280;3009;43.224;27.976;2023-09-19T04:00:57;100797.03;;;17.37;100.00
5966;BME280;3009;43.224;27.976;2023-09-19T04:03:26;100798.34;;;17.43;100.00
5966;BME280;3009;43.224;27.976;2023-09-19T04:06:03;100794.03;;;17.54;100.00
5966;BME280;3009;43.224;27.976;2023-09-19T04:08:31;100789.06;;;17.57;100.00
5966;BME280;3009;43.224;27.976;2023-09-19T04:11:01;100791.34;;;17.54;100.00
5966;BME280;3009;43.224;27.976;2023-09-19T04:13:29;100784.53;;;17.61;100.00
5966;BME280;3009;43.224;27.976;2023-09-19T04:15:58;100789.94;;;17.61;100.00
5966;BME280;3009;43.224;27.976;2023-09-19T04:18:26;100789.06;;;17.57;100.00
5966;BME280;3009;43.224;27.976;2023-09-19T04:20:55;100779.34;;;17.56;100.00
5966;BME280;3009;43.224;27.976;2023-09-19T04:23:24;100784.13;;;17.46;100.00
5966;BME280;3009;43.224;27.976;2023-09-19T04:25:52;100777.22;;;17.49;100.00
5966;BME280;3009;43.224;27.976;2023-09-19T04:28:22;100776.97;;;17.54;100.00
5966;BME280;3009;43.224;27.976;2023-09-19T04:30:51;100770.63;;;17.62;100.00
5966;BME280;3009;43.224;27.976;2023-09-19T04:33:19;100769.44;;;17.76;100.00
5966;BME280;3009;43.224;27.976;2023-09-19T04:35:49;100776.88;;;17.79;100.00
5966;BME280;3009;43.224;27.976;2023-09-19T04:38:19;100769.47;;;17.92;100.00
5966;BME280;3009;43.224;27.976;2023-09-19T04:40:47;100772.63;;;17.94;100.00
5966;BME280;3009;43.224;27.976;2023-09-19T04:43:16;100770.78;;;17.98;100.00
5966;BME280;3009;43.224;27.976;2023-09-19T04:45:46;100769.75;;;18.02;100.00
5966;BME280;3009;43.224;27.976;2023-09-19T04:48:14;100770.88;;;18.17;100.00
5966;BME280;3009;43.224;27.976;2023-09-19T04:50:43;100776.22;;;18.30;100.00
5966;BME280;3009;43.224;27.976;2023-09-19T04:53:11;100764.69;;;18.33;100.00
5966;BME280;3009;43.224;27.976;2023-09-19T04:55:40;100766.16;;;18.46;100.00
5966;BME280;3009;43.224;27.976;2023-09-19T04:58:10;100767.91;;;18.54;100.00
5966;BME280;3009;43.224;27.976;2023-09-19T05:00:38;100760.78;;;18.66;100.00
5966;BME280;3009;43.224;27.976;2023-09-19T05:03:09;100761.72;;;18.73;100.00
5966;BME280;3009;43.224;27.976;2023-09-19T05:05:37;100766.44;;;18.92;100.00
5966;BME280;3009;43.224;27.976;2023-09-19T05:08:08;100759.47;;;19.11;100.00
5966;BME280;3009;43.224;27.976;2023-09-19T05:10:36;100757.19;;;19.52;100.00
5966;BME280;3009;43.224;27.976;2023-09-19T05:13:06;100745.00;;;20.35;100.00
5966;BME280;3009;43.224;27.976;2023-09-19T05:15:35;100733.22;;;21.83;100.00
5966;BME280;3009;43.224;27.976;2023-09-19T05:18:04;100726.59;;;23.02;91.53
5966;BME280;3009;43.224;27.976;2023-09-19T05:20:35;100731.16;;;24.00;83.43
5966;BME280;3009;43.224;27.976;2023-09-19T05:23:06;100730.66;;;24.81;77.46
5966;BME280;3009;43.224;27.976;2023-09-19T05:25:40;100730.72;;;24.70;77.89
5966;BME280;3009;43.224;27.976;2023-09-19T05:28:10;100723.03;;;25.32;74.63
5966;BME280;3009;43.224;27.976;2023-09-19T05:30:42;100721.84;;;25.29;71.60
5966;BME280;3009;43.224;27.976;2023-09-19T05:33:15;100724.81;;;24.72;75.12
5966;BME280;3009;43.224;27.976;2023-09-19T05:35:47;100727.25;;;23.98;78.07
5966;BME280;3009;43.224;27.976;2023-09-19T05:38:16;100730.34;;;24.36;76.59
5966;BME280;3009;43.224;27.976;2023-09-19T05:40:47;100731.56;;;24.20;77.89
5966;BME280;3009;43.224;27.976;2023-09-19T05:43:15;100731.06;;;25.61;72.55
5966;BME280;3009;43.224;27.976;2023-09-19T05:45:44;100734.03;;;25.18;73.66
5966;BME280;3009;43.224;27.976;2023-09-19T05:48:13;100730.34;;;25.50;72.00
5966;BME280;3009;43.224;27.976;2023-09-19T05:50:43;100720.97;;;24.33;74.46
5966;BME280;3009;43.224;27.976;2023-09-19T05:53:15;100716.25;;;24.41;76.75
5966;BME280;3009;43.224;27.976;2023-09-19T05:55:44;100721.88;;;25.19;74.47
5966;BME280;3009;43.224;27.976;2023-09-19T05:58:13;100721.84;;;25.26;71.55
5966;BME280;3009;43.224;27.976;2023-09-19T06:00:41;100723.66;;;25.54;71.75
5966;BME280;3009;43.224;27.976;2023-09-19T06:03:11;100720.59;;;25.45;71.44
5966;BME280;3009;43.224;27.976;2023-09-19T06:05:41;100733.06;;;24.65;74.28
5966;BME280;3009;43.224;27.976;2023-09-19T06:08:09;100731.81;;;25.69;70.12
5966;BME280;3009;43.224;27.976;2023-09-19T06:10:40;100734.44;;;25.16;71.25
5966;BME280;3009;43.224;27.976;2023-09-19T06:13:09;100733.31;;;26.64;66.41
5966;BME280;3009;43.224;27.976;2023-09-19T06:15:37;100732.63;;;26.18;66.81
5966;BME280;3009;43.224;27.976;2023-09-19T06:18:11;100734.44;;;25.83;67.61
5966;BME280;3009;43.224;27.976;2023-09-19T06:20:42;100743.44;;;26.36;65.46
5966;BME280;3009;43.224;27.976;2023-09-19T06:23:12;100741.28;;;26.16;65.27
5966;BME280;3009;43.224;27.976;2023-09-19T06:25:42;100748.63;;;26.68;62.76
5966;BME280;3009;43.224;27.976;2023-09-19T06:28:11;100741.09;;;27.38;60.32
5966;BME280;3009;43.224;27.976;2023-09-19T06:30:40;100742.84;;;26.14;65.17
5966;BME280;3009;43.224;27.976;2023-09-19T06:33:09;100750.81;;;25.97;66.89
5966;BME280;3009;43.224;27.976;2023-09-19T06:35:42;100753.53;;;26.05;65.42
5966;BME280;3009;43.224;27.976;2023-09-19T06:38:14;100750.56;;;25.07;69.27
5966;BME280;3009;43.224;27.976;2023-09-19T06:40:44;100749.13;;;24.48;75.38
5966;BME280;3009;43.224;27.976;2023-09-19T06:43:13;100759.19;;;25.05;71.84
5966;BME280;3009;43.224;27.976;2023-09-19T06:45:41;100759.00;;;25.45;70.07
5966;BME280;3009;43.224;27.976;2023-09-19T06:48:10;100763.09;;;25.08;72.49
5966;BME280;3009;43.224;27.976;2023-09-19T06:50:39;100754.59;;;24.55;76.23
5966;BME280;3009;43.224;27.976;2023-09-19T06:53:08;100760.91;;;23.98;78.74
5966;BME280;3009;43.224;27.976;2023-09-19T06:55:37;100762.47;;;24.10;81.00
5966;BME280;3009;43.224;27.976;2023-09-19T06:58:07;100768.66;;;23.71;81.99
5966;BME280;3009;43.224;27.976;2023-09-19T07:00:35;100757.88;;;23.08;86.07
5966;BME280;3009;43.224;27.976;2023-09-19T07:03:06;100760.00;;;23.40;85.74
5966;BME280;3009;43.224;27.976;2023-09-19T07:05:38;100752.31;;;22.83;87.26
5966;BME280;3009;43.224;27.976;2023-09-19T07:08:08;100759.00;;;22.93;90.46
5966;BME280;3009;43.224;27.976;2023-09-19T07:10:38;100764.31;;;22.64;89.88
5966;BME280;3009;43.224;27.976;2023-09-19T07:13:09;100755.66;;;22.58;91.45
5966;BME280;3009;43.224;27.976;2023-09-19T07:15:38;100761.56;;;22.64;93.95
5966;BME280;3009;43.224;27.976;2023-09-19T07:18:14;100761.28;;;22.80;92.95
5966;BME280;3009;43.224;27.976;2023-09-19T07:20:44;100762.47;;;22.27;94.25
5966;BME280;3009;43.224;27.976;2023-09-19T07:23:16;100759.09;;;22.44;96.28
5966;BME280;3009;43.224;27.976;2023-09-19T07:25:45;100760.91;;;22.85;95.42
5966;BME280;3009;43.224;27.976;2023-09-19T07:28:17;100766.97;;;22.57;92.11
5966;BME280;3009;43.224;27.976;2023-09-19T07:30:46;100754.22;;;22.75;93.36
5966;BME280;3009;43.224;27.976;2023-09-19T07:33:14;100758.28;;;23.07;92.05
5966;BME280;3009;43.224;27.976;2023-09-19T07:35:45;100767.72;;;23.16;89.99
5966;BME280;3009;43.224;27.976;2023-09-19T07:38:14;100756.63;;;22.88;88.39
5966;BME280;3009;43.224;27.976;2023-09-19T07:40:43;100752.75;;;22.96;88.38
5966;BME280;3009;43.224;27.976;2023-09-19T07:43:11;100758.19;;;22.89;92.13
5966;BME280;3009;43.224;27.976;2023-09-19T07:45:41;100755.72;;;22.62;91.94
5966;BME280;3009;43.224;27.976;2023-09-19T07:48:10;100757.63;;;22.58;89.72
5966;BME280;3009;43.224;27.976;2023-09-19T07:51:04;100764.69;;;22.62;91.31
5966;BME280;3009;43.224;27.976;2023-09-19T07:53:34;100754.28;;;22.86;91.19
5966;BME280;3009;43.224;27.976;2023-09-19T07:56:03;100751.03;;;22.62;90.82
5966;BME280;3009;43.224;27.976;2023-09-19T07:58:31;100756.16;;;22.75;89.17
5966;BME280;3009;43.224;27.976;2023-09-19T08:01:06;100756.69;;;22.95;88.70
5966;BME280;3009;43.224;27.976;2023-09-19T08:03:35;100747.84;;;22.57;89.75
5966;BME280;3009;43.224;27.976;2023-09-19T08:06:08;100738.28;;;22.88;90.81
5966;BME280;3009;43.224;27.976;2023-09-19T08:08:37;100745.66;;;22.80;90.60
5966;BME280;3009;43.224;27.976;2023-09-19T08:11:06;100749.59;;;22.87;89.62
5966;BME280;3009;43.224;27.976;2023-09-19T08:13:39;100752.50;;;22.49;90.32
5966;BME280;3009;43.224;27.976;2023-09-19T08:16:11;100748.63;;;22.54;88.63
5966;BME280;3009;43.224;27.976;2023-09-19T08:18:42;100749.31;;;22.43;90.55
5966;BME280;3009;43.224;27.976;2023-09-19T08:21:11;100747.06;;;22.53;89.58
5966;BME280;3009;43.224;27.976;2023-09-19T08:23:43;100750.16;;;22.47;90.94
5966;BME280;3009;43.224;27.976;2023-09-19T08:26:12;100749.59;;;22.87;88.98
5966;BME280;3009;43.224;27.976;2023-09-19T08:28:41;100744.84;;;22.69;89.37
5966;BME280;3009;43.224;27.976;2023-09-19T08:31:11;100749.53;;;22.72;90.68
5966;BME280;3009;43.224;27.976;2023-09-19T08:33:39;100740.25;;;22.91;91.55
5966;BME280;3009;43.224;27.976;2023-09-19T08:36:09;100740.22;;;22.88;91.38
5966;BME280;3009;43.224;27.976;2023-09-19T08:38:38;100736.09;;;23.19;91.37
5966;BME280;3009;43.224;27.976;2023-09-19T08:41:08;100734.81;;;22.98;91.07
5966;BME280;3009;43.224;27.976;2023-09-19T08:43:36;100729.28;;;22.88;89.85
5966;BME280;3009;43.224;27.976;2023-09-19T08:46:11;100725.16;;;23.19;89.14
5966;BME280;3009;43.224;27.976;2023-09-19T08:48:45;100725.97;;;23.27;90.01
5966;BME280;3009;43.224;27.976;2023-09-19T08:51:18;100720.81;;;23.11;84.63
5966;BME280;3009;43.224;27.976;2023-09-19T08:53:52;100723.78;;;22.80;86.39
5966;BME280;3009;43.224;27.976;2023-09-19T08:56:25;100715.66;;;23.02;84.64
5966;BME280;3009;43.224;27.976;2023-09-19T08:58:58;100714.56;;;23.10;80.55
5966;BME280;3009;43.224;27.976;2023-09-19T09:01:31;100714.28;;;23.48;84.65
5966;BME280;3009;43.224;27.976;2023-09-19T09:04:01;100714.28;;;23.73;80.47
5966;BME280;3009;43.224;27.976;2023-09-19T09:06:31;100706.88;;;23.56;75.95
5966;BME280;3009;43.224;27.976;2023-09-19T09:09:01;100711.97;;;23.75;77.21
5966;BME280;3009;43.224;27.976;2023-09-19T09:11:33;100708.88;;;23.91;78.23
5966;BME280;3009;43.224;27.976;2023-09-19T09:14:01;100702.56;;;23.62;79.98
5966;BME280;3009;43.224;27.976;2023-09-19T09:16:31;100699.47;;;23.70;77.06
5966;BME280;3009;43.224;27.976;2023-09-19T09:19:01;100703.00;;;23.89;75.53
5966;BME280;3009;43.224;27.976;2023-09-19T09:21:29;100699.50;;;24.06;73.29
5966;BME280;3009;43.224;27.976;2023-09-19T09:24:25;100703.38;;;24.13;73.80
5966;BME280;3009;43.224;27.976;2023-09-19T09:26:54;100690.06;;;24.22;73.07
5966;BME280;3009;43.224;27.976;2023-09-19T09:29:41;100695.97;;;23.92;73.17
5966;BME280;3009;43.224;27.976;2023-09-19T09:32:22;100690.50;;;23.92;74.59
5966;BME280;3009;43.224;27.976;2023-09-19T09:34:52;100691.28;;;23.99;74.78
5966;BME280;3009;43.224;27.976;2023-09-19T09:37:26;100688.09;;;24.30;75.78
5966;BME280;3009;43.224;27.976;2023-09-19T09:39:58;100691.22;;;24.24;74.36
5966;BME280;3009;43.224;27.976;2023-09-19T09:42:46;100695.84;;;24.64;76.15
5966;BME280;3009;43.224;27.976;2023-09-19T09:45:20;100689.97;;;24.54;72.79
5966;BME280;3009;43.224;27.976;2023-09-19T09:48:06;100685.00;;;24.06;74.27
5966;BME280;3009;43.224;27.976;2023-09-19T09:50:47;100682.16;;;24.53;74.10
5966;BME280;3009;43.224;27.976;2023-09-19T09:53:23;100687.97;;;24.80;74.56
5966;BME280;3009;43.224;27.976;2023-09-19T09:56:00;100679.44;;;24.49;71.00
5966;BME280;3009;43.224;27.976;2023-09-19T09:58:33;100677.50;;;24.46;72.56
5966;BME280;3009;43.224;27.976;2023-09-19T10:01:03;100670.75;;;24.76;71.92
5966;BME280;3009;43.224;27.976;2023-09-19T10:03:38;100675.84;;;24.77;75.89
5966;BME280;3009;43.224;27.976;2023-09-19T10:06:10;100670.00;;;24.65;77.17
5966;BME280;3009;43.224;27.976;2023-09-19T10:08:58;100670.41;;;24.52;77.19
5966;BME280;3009;43.224;27.976;2023-09-19T10:11:34;100664.53;;;24.50;78.42
5966;BME280;3009;43.224;27.976;2023-09-19T10:14:07;100674.75;;;24.46;80.23
5966;BME280;3009;43.224;27.976;2023-09-19T10:16:40;100671.59;;;24.58;81.26
5966;BME280;3009;43.224;27.976;2023-09-19T10:19:16;100662.13;;;24.77;80.75
5966;BME280;3009;43.224;27.976;2023-09-19T10:21:54;100664.06;;;24.77;80.76
5966;BME280;3009;43.224;27.976;2023-09-19T10:24:25;100660.22;;;24.56;82.68
5966;BME280;3009;43.224;27.976;2023-09-19T10:26:55;100652.75;;;24.68;81.95
5966;BME280;3009;43.224;27.976;2023-09-19T10:29:25;100662.94;;;24.64;82.58
5966;BME280;3009;43.224;27.976;2023-09-19T10:31:58;100655.53;;;24.57;82.67
5966;BME280;3009;43.224;27.976;2023-09-19T10:34:30;100653.56;;;24.57;81.05
5966;BME280;3009;43.224;27.976;2023-09-19T10:37:00;100651.97;;;24.74;80.89
5966;BME280;3009;43.224;27.976;2023-09-19T10:39:33;100651.50;;;24.87;80.73
5966;BME280;3009;43.224;27.976;2023-09-19T10:42:02;100648.31;;;24.95;81.23
5966;BME280;3009;43.224;27.976;2023-09-19T10:44:33;100651.94;;;24.78;82.00
5966;BME280;3009;43.224;27.976;2023-09-19T10:47:08;100649.22;;;24.71;84.13
5966;BME280;3009;43.224;27.976;2023-09-19T10:49:48;100646.47;;;24.71;83.17
5966;BME280;3009;43.224;27.976;2023-09-19T10:52:22;100642.47;;;24.93;83.64
5966;BME280;3009;43.224;27.976;2023-09-19T10:54:54;100639.72;;;24.97;81.94
5966;BME280;3009;43.224;27.976;2023-09-19T10:57:25;100637.28;;;25.10;82.85
5966;BME280;3009;43.224;27.976;2023-09-19T11:00:02;100641.91;;;25.17;81.42
5966;BME280;3009;43.224;27.976;2023-09-19T11:03:19;100626.50;;;25.41;81.02
5966;BME280;3009;43.224;27.976;2023-09-19T11:06:09;100619.78;;;25.49;82.46
5966;BME280;3009;43.224;27.976;2023-09-19T11:08:56;100628.22;;;25.13;82.29
5966;BME280;3009;43.224;27.976;2023-09-19T11:11:41;100616.97;;;24.97;84.73
5966;BME280;3009;43.224;27.976;2023-09-19T11:14:37;100613.56;;;24.78;87.22
5966;BME280;3009;43.224;27.976;2023-09-19T11:17:31;100614.72;;;24.77;91.91
5966;BME280;3009;43.224;27.976;2023-09-19T11:20:19;100615.19;;;24.65;93.27
5966;BME280;3009;43.224;27.976;2023-09-19T11:23:20;100617.56;;;24.63;92.01
5966;BME280;3009;43.224;27.976;2023-09-19T11:25:53;100613.53;;;24.85;90.40
5966;BME280;3009;43.224;27.976;2023-09-19T11:28:32;100612.66;;;24.99;91.37
5966;BME280;3009;43.224;27.976;2023-09-19T11:34:42;100600.81;;;25.13;89.16
5966;BME280;3009;43.224;27.976;2023-09-19T11:40:44;100609.31;;;24.63;88.36
5966;BME280;3009;43.224;27.976;2023-09-19T11:43:32;100614.41;;;24.61;90.78
5966;BME280;3009;43.224;27.976;2023-09-19T11:46:05;100607.78;;;24.51;92.20
5966;BME280;3009;43.224;27.976;2023-09-19T11:48:35;100610.84;;;24.71;92.53
5966;BME280;3009;43.224;27.976;2023-09-19T11:51:19;100607.25;;;24.85;89.53
5966;BME280;3009;43.224;27.976;2023-09-19T11:53:50;100605.63;;;24.94;89.14
5966;BME280;3009;43.224;27.976;2023-09-19T11:56:22;100605.59;;;24.98;87.61
5966;BME280;3009;43.224;27.976;2023-09-19T11:58:53;100605.44;;;25.23;87.64
5966;BME280;3009;43.224;27.976;2023-09-19T12:01:24;100589.81;;;25.13;88.70
5966;BME280;3009;43.224;27.976;2023-09-19T12:03:57;100594.59;;;25.05;88.83
5966;BME280;3009;43.224;27.976;2023-09-19T12:06:27;100589.03;;;25.16;86.31
5966;BME280;3009;43.224;27.976;2023-09-19T12:08:59;100591.97;;;24.84;85.26
5966;BME280;3009;43.224;27.976;2023-09-19T12:11:41;100585.78;;;24.69;85.59
5966;BME280;3009;43.224;27.976;2023-09-19T12:14:11;100586.22;;;24.56;87.76
5966;BME280;3009;43.224;27.976;2023-09-19T12:16:53;100586.94;;;24.75;88.44
5966;BME280;3009;43.224;27.976;2023-09-19T12:19:23;100586.09;;;24.85;89.86
5966;BME280;3009;43.224;27.976;2023-09-19T12:21:59;100588.44;;;24.83;89.94
5966;BME280;3009;43.224;27.976;2023-09-19T12:24:32;100579.75;;;24.95;88.52
5966;BME280;3009;43.224;27.976;2023-09-19T12:27:06;100570.78;;;24.91;88.01
5966;BME280;3009;43.224;27.976;2023-09-19T12:29:43;100576.66;;;24.86;88.36
5966;BME280;3009;43.224;27.976;2023-09-19T12:32:12;100571.91;;;24.98;90.31
5966;BME280;3009;43.224;27.976;2023-09-19T12:34:51;100576.81;;;24.57;90.23
5966;BME280;3009;43.224;27.976;2023-09-19T12:37:20;100578.72;;;24.71;89.71
5966;BME280;3009;43.224;27.976;2023-09-19T12:39:51;100571.28;;;24.68;91.18
5966;BME280;3009;43.224;27.976;2023-09-19T12:42:26;100563.13;;;24.50;92.60
5966;BME280;3009;43.224;27.976;2023-09-19T12:44:56;100570.19;;;24.51;93.85
5966;BME280;3009;43.224;27.976;2023-09-19T12:47:28;100573.69;;;24.63;94.32
5966;BME280;3009;43.224;27.976;2023-09-19T12:50:11;100564.69;;;24.58;94.66
5966;BME280;3009;43.224;27.976;2023-09-19T12:52:56;100562.72;;;24.55;94.89
5966;BME280;3009;43.224;27.976;2023-09-19T12:55:28;100566.25;;;24.59;92.30
5966;BME280;3009;43.224;27.976;2023-09-19T12:58:08;100555.66;;;24.62;93.80
5966;BME280;3009;43.224;27.976;2023-09-19T13:00:38;100551.34;;;24.61;94.49
5966;BME280;3009;43.224;27.976;2023-09-19T13:03:17;100552.56;;;24.59;95.19
5966;BME280;3009;43.224;27.976;2023-09-19T13:05:53;100550.22;;;24.47;93.53
5966;BME280;3009;43.224;27.976;2023-09-19T13:08:26;100553.38;;;24.42;95.00
5966;BME280;3009;43.224;27.976;2023-09-19T13:11:04;100554.53;;;24.48;95.64
5966;BME280;3009;43.224;27.976;2023-09-19T13:13:40;100551.78;;;24.48;96.02
5966;BME280;3009;43.224;27.976;2023-09-19T13:16:11;100552.66;;;24.27;94.71
5966;BME280;3009;43.224;27.976;2023-09-19T13:18:46;100546.03;;;24.21;95.45
5966;BME280;3009;43.224;27.976;2023-09-19T13:21:32;100541.38;;;24.14;94.56
5966;BME280;3009;43.224;27.976;2023-09-19T13:24:24;100544.88;;;24.22;93.22
5966;BME280;3009;43.224;27.976;2023-09-19T13:26:54;100544.03;;;24.29;91.46
5966;BME280;3009;43.224;27.976;2023-09-19T13:29:24;100544.06;;;24.25;93.23